createdAt,value
2022-12-06T00:00:30.151Z,4.77
2022-12-06T00:05:33.330Z,4.47
2022-12-06T00:10:37.480Z,4.40
2022-12-06T00:15:40.556Z,3.90
2022-12-06T00:20:43.631Z,4.33
2022-12-06T00:25:46.769Z,4.17
2022-12-06T00:30:49.845Z,3.77
2022-12-06T00:36:31.769Z,3.30
2022-12-06T00:41:34.929Z,3.43
2022-12-06T00:46:39.330Z,3.40
2022-12-06T00:51:42.462Z,3.50
2022-12-06T00:56:45.662Z,2.77
2022-12-06T01:01:48.803Z,3.13
2022-12-06T01:06:51.985Z,2.50
2022-12-06T01:11:54.994Z,2.50
2022-12-06T01:16:58.060Z,2.43
2022-12-06T01:22:01.424Z,2.43
2022-12-06T01:27:04.505Z,2.37
2022-12-06T01:32:07.706Z,2.40
2022-12-06T01:37:11.273Z,2.10
2022-12-06T01:42:16.000Z,2.20
2022-12-06T01:47:32.485Z,2.50
2022-12-06T01:53:03.408Z,2.73
2022-12-06T01:58:20.343Z,2.90
2022-12-06T02:03:27.619Z,2.50
2022-12-06T02:08:31.963Z,2.90
2022-12-06T02:13:36.239Z,3.67
2022-12-06T02:18:46.451Z,3.40
2022-12-06T02:24:08.100Z,3.07
2022-12-06T02:29:11.157Z,3.77
2022-12-06T02:34:21.899Z,3.53
2022-12-06T02:39:43.084Z,3.83
2022-12-06T02:44:55.764Z,3.50
2022-12-06T02:50:00.694Z,3.90
2022-12-06T02:55:05.010Z,3.90
2022-12-06T03:00:33.041Z,3.57
2022-12-06T03:06:02.472Z,3.50
2022-12-06T03:11:05.915Z,4.07
2022-12-06T03:16:17.629Z,3.50
2022-12-06T03:21:30.921Z,4.10
2022-12-06T03:26:36.545Z,3.90
2022-12-06T03:31:41.984Z,4.33
2022-12-06T03:36:46.935Z,4.07
2022-12-06T03:41:54.908Z,4.07
2022-12-06T03:47:28.111Z,4.13
2022-12-06T03:52:31.539Z,4.57
2022-12-06T03:57:35.054Z,4.23
2022-12-06T04:02:38.086Z,4.50
2022-12-06T04:07:41.191Z,4.17
2022-12-06T04:13:02.362Z,4.30
2022-12-06T04:18:14.254Z,4.53
2022-12-06T04:23:18.568Z,4.47
2022-12-06T04:28:40.194Z,4.93
2022-12-06T04:34:01.598Z,4.97
2022-12-06T04:39:04.764Z,5.40
2022-12-06T04:44:08.390Z,5.17
2022-12-06T04:49:11.583Z,6.33
2022-12-06T04:54:16.105Z,5.93
2022-12-06T04:59:19.579Z,5.80
2022-12-06T05:04:23.109Z,5.80
2022-12-06T05:09:26.490Z,5.90
2022-12-06T05:14:29.672Z,5.87
2022-12-06T05:19:32.743Z,5.90
2022-12-06T05:24:35.845Z,5.97
2022-12-06T05:29:39.049Z,6.00
2022-12-06T05:34:42.176Z,6.63
2022-12-06T05:39:45.210Z,6.10
2022-12-06T05:44:48.303Z,6.40
2022-12-06T05:49:51.538Z,6.47
2022-12-06T05:54:54.592Z,6.20
2022-12-06T05:59:57.888Z,6.20
2022-12-06T06:05:01.218Z,6.20
2022-12-06T06:10:06.239Z,6.40
2022-12-06T06:15:09.688Z,7.20
2022-12-06T06:20:14.142Z,6.57
2022-12-06T06:25:17.262Z,6.90
2022-12-06T06:30:20.513Z,6.97
2022-12-06T06:35:23.616Z,6.67
2022-12-06T06:40:26.692Z,6.93
2022-12-06T06:45:29.727Z,7.40
2022-12-06T06:50:32.754Z,6.70
2022-12-06T06:55:38.441Z,6.93
2022-12-06T07:00:42.912Z,6.67
2022-12-06T07:05:56.791Z,6.37
2022-12-06T07:11:00.292Z,5.70
2022-12-06T07:16:08.475Z,6.57
2022-12-06T07:21:13.963Z,6.13
2022-12-06T07:26:22.850Z,6.17
2022-12-06T07:31:28.564Z,6.47
2022-12-06T07:36:33.207Z,5.83
2022-12-06T07:41:54.761Z,5.87
2022-12-06T07:47:18.665Z,4.80
2022-12-06T07:52:22.045Z,4.60
2022-12-06T07:57:28.076Z,5.33
2022-12-06T08:02:31.237Z,6.10
2022-12-06T08:07:34.432Z,5.90
2022-12-06T08:12:37.696Z,5.87
2022-12-06T08:17:42.768Z,5.23
2022-12-06T08:22:45.910Z,5.17
2022-12-06T08:27:48.966Z,5.07
2022-12-06T08:32:52.033Z,5.77
2022-12-06T08:37:54.996Z,5.37
2022-12-06T08:42:58.033Z,5.93
2022-12-06T08:48:01.384Z,6.70
2022-12-06T08:53:04.502Z,7.10
2022-12-06T08:58:07.921Z,6.73
2022-12-06T09:03:10.978Z,7.27
2022-12-06T09:08:14.171Z,7.30
2022-12-06T09:13:17.289Z,7.53
2022-12-06T09:18:20.312Z,7.90
2022-12-06T09:23:23.415Z,8.30
2022-12-06T09:28:26.456Z,8.83
2022-12-06T09:33:30.619Z,8.50
2022-12-06T09:38:38.108Z,8.73
2022-12-06T09:44:01.518Z,8.90
2022-12-06T09:49:10.345Z,8.70
2022-12-06T09:54:50.589Z,9.03
2022-12-06T10:00:08.511Z,8.87
2022-12-06T10:05:35.169Z,8.27
2022-12-06T10:11:12.496Z,7.37
2022-12-06T10:16:40.320Z,8.00
2022-12-06T10:22:18.975Z,8.03
2022-12-06T10:27:38.112Z,7.93
2022-12-06T10:33:05.678Z,8.50
2022-12-06T10:38:39.245Z,8.90
2022-12-06T10:44:04.798Z,7.47
2022-12-06T10:49:39.854Z,8.50
2022-12-06T10:54:58.726Z,8.00
2022-12-06T11:00:26.005Z,8.90
2022-12-06T11:06:12.439Z,9.03
2022-12-06T11:11:25.122Z,9.23
2022-12-06T11:16:32.756Z,9.07
2022-12-06T11:21:46.285Z,10.10
2022-12-06T11:26:53.810Z,9.87
2022-12-06T11:32:00.562Z,9.50
2022-12-06T11:37:05.507Z,10.27
2022-12-06T11:42:11.971Z,9.60
2022-12-06T11:47:22.896Z,9.53
2022-12-06T11:52:48.924Z,9.60
2022-12-06T11:58:06.910Z,9.80
2022-12-06T12:03:28.976Z,9.90
2022-12-06T12:08:32.951Z,8.30
2022-12-06T12:13:45.505Z,10.23
2022-12-06T12:19:20.948Z,9.17
2022-12-06T12:25:22.612Z,10.93
2022-12-06T12:30:52.975Z,10.33
2022-12-06T12:36:15.146Z,8.73
2022-12-06T12:41:44.282Z,10.17
2022-12-06T12:47:00.478Z,9.60
2022-12-06T12:52:25.077Z,9.77
2022-12-06T12:57:28.324Z,9.43
2022-12-06T13:02:35.512Z,10.03
2022-12-06T13:07:42.607Z,9.13
2022-12-06T13:12:55.947Z,9.80
2022-12-06T13:18:14.309Z,9.80
2022-12-06T13:23:20.693Z,9.27
2022-12-06T13:28:29.828Z,8.53
2022-12-06T13:33:37.783Z,8.40
2022-12-06T13:38:42.477Z,7.00
2022-12-06T13:43:45.801Z,7.43
2022-12-06T13:49:04.140Z,6.17
2022-12-06T13:54:12.981Z,7.27
2022-12-06T13:59:16.121Z,7.70
2022-12-06T14:09:42.883Z,8.20
2022-12-06T14:14:56.766Z,7.63
2022-12-06T14:20:01.691Z,7.30
2022-12-06T14:25:23.926Z,7.87
2022-12-06T14:30:27.527Z,8.60
2022-12-06T14:35:36.450Z,8.40
2022-12-06T14:41:00.905Z,6.83
2022-12-06T14:46:07.940Z,7.13
2022-12-06T14:51:23.495Z,7.67
2022-12-06T14:56:31.853Z,7.93
2022-12-06T15:01:47.403Z,7.23
2022-12-06T15:06:56.662Z,7.80
2022-12-06T15:12:38.677Z,7.57
2022-12-06T15:17:42.751Z,7.67
2022-12-06T15:22:46.600Z,8.33
2022-12-06T15:27:49.640Z,8.20
2022-12-06T15:32:52.712Z,8.03
2022-12-06T15:37:55.831Z,6.73
2022-12-06T15:43:02.380Z,7.23
2022-12-06T15:48:06.817Z,7.27
2022-12-06T15:53:17.601Z,7.00
2022-12-06T15:58:23.055Z,6.90
2022-12-06T16:03:26.260Z,7.50
2022-12-06T16:08:29.491Z,6.43
2022-12-06T16:13:32.617Z,5.90
2022-12-06T16:18:35.792Z,6.70
2022-12-06T16:24:14.249Z,6.23
2022-12-06T16:29:23.335Z,7.43
2022-12-06T16:34:28.812Z,6.60
2022-12-06T16:39:34.435Z,5.77
2022-12-06T16:44:51.305Z,5.87
2022-12-06T16:49:54.651Z,5.77
2022-12-06T16:54:58.002Z,5.20
2022-12-06T17:00:01.144Z,5.40
2022-12-06T17:05:06.946Z,5.53
2022-12-06T17:10:11.996Z,5.60
2022-12-06T17:15:24.306Z,5.00
2022-12-06T17:20:27.441Z,4.40
2022-12-06T17:25:30.503Z,4.60
2022-12-06T17:30:33.960Z,4.80
2022-12-06T17:35:37.418Z,3.97
2022-12-06T17:40:40.495Z,4.27
2022-12-06T17:45:43.597Z,4.80
2022-12-06T17:50:46.898Z,4.20
2022-12-06T17:55:49.913Z,4.13
2022-12-06T18:00:53.084Z,5.50
2022-12-06T18:05:59.621Z,5.00
2022-12-06T18:11:02.949Z,6.03
2022-12-06T18:16:18.309Z,5.27
2022-12-06T18:21:21.970Z,5.57
2022-12-06T18:26:25.257Z,5.50
2022-12-06T18:31:30.041Z,4.97
2022-12-06T18:36:33.368Z,5.33
2022-12-06T18:41:36.499Z,5.37
2022-12-06T18:46:39.710Z,5.23
2022-12-06T18:51:43.519Z,4.33
2022-12-06T18:56:46.601Z,5.20
2022-12-06T19:01:49.714Z,5.30
2022-12-06T19:06:53.073Z,5.00
2022-12-06T19:11:56.123Z,4.77
2022-12-06T19:16:59.698Z,4.83
2022-12-06T19:22:04.443Z,4.70
2022-12-06T19:27:07.689Z,5.63
2022-12-06T19:32:11.518Z,5.43
2022-12-06T19:37:14.620Z,5.77
2022-12-06T19:42:36.588Z,5.70
2022-12-06T19:47:39.651Z,5.93
2022-12-06T19:52:42.679Z,6.37
2022-12-06T19:57:46.392Z,5.63
2022-12-06T20:02:49.494Z,5.70
2022-12-06T20:07:52.639Z,6.30
2022-12-06T20:12:55.661Z,5.20
2022-12-06T20:17:58.955Z,5.73
2022-12-06T20:23:03.908Z,5.70
2022-12-06T20:28:13.715Z,5.30
2022-12-06T20:33:16.989Z,4.97
2022-12-06T20:38:20.096Z,4.87
2022-12-06T20:43:23.069Z,4.93
2022-12-06T20:48:26.136Z,4.60
2022-12-06T20:53:29.371Z,4.27
2022-12-06T20:58:33.046Z,4.40
2022-12-06T21:03:36.192Z,4.00
2022-12-06T21:08:39.739Z,3.80
2022-12-06T21:13:46.154Z,4.00
2022-12-06T21:18:53.819Z,4.20
2022-12-06T21:24:00.475Z,4.40
2022-12-06T21:29:04.055Z,4.57
2022-12-06T21:34:07.205Z,4.83
2022-12-06T21:39:13.018Z,4.70
2022-12-06T21:44:16.155Z,4.70
2022-12-06T21:49:19.786Z,4.43
2022-12-06T21:54:22.772Z,3.97
2022-12-06T21:59:26.927Z,4.43
2022-12-06T22:04:29.932Z,5.73
2022-12-06T22:09:33.073Z,6.67
2022-12-06T22:14:36.210Z,6.57
2022-12-06T22:19:39.276Z,7.60
2022-12-06T22:24:42.373Z,8.23
2022-12-06T22:29:47.913Z,9.03
2022-12-06T22:34:50.923Z,9.30
2022-12-06T22:39:53.908Z,8.77
2022-12-06T22:44:56.980Z,9.50
2022-12-06T22:50:00.404Z,9.43
2022-12-06T22:55:03.987Z,9.93
2022-12-06T23:00:07.752Z,9.97
2022-12-06T23:05:11.009Z,8.90
2022-12-06T23:10:14.080Z,8.97
2022-12-06T23:15:17.152Z,9.70
2022-12-06T23:20:20.226Z,8.70
2022-12-06T23:25:23.308Z,9.43
2022-12-06T23:30:26.382Z,9.03
2022-12-06T23:35:29.490Z,8.87
2022-12-06T23:40:33.718Z,8.30
2022-12-06T23:45:36.738Z,7.40
2022-12-06T23:50:39.788Z,7.63
2022-12-06T23:55:42.774Z,7.73
